Time;durP1;ratioP1;P1;durP2;ratioP2;P2;SDS_P1;SDS_P2;PMS_P1;PMS_P2;Temp;Humidity;BMP_temperature;BMP_pressure;BME280_temperature;BME280_humidity;BME280_pressure;Samples;Min_cycle;Max_cycle;Signal;HPM_P1;HPM_P2
2023/08/04 00:03:06;;;;;;;1.63;1.20;;;17.90;98.10;;;;;;21006353;28;20304;-69
2023/08/04 00:13:08;;;;;;;2.90;1.23;;;17.90;98.40;;;;;;21005683;28;20245;-69
2023/08/04 00:23:10;;;;;;;1.90;1.40;;;17.90;98.60;;;;;;21003810;28;20211;-69
2023/08/04 00:33:11;;;;;;;3.30;1.40;;;17.90;98.70;;;;;;21004199;28;20262;-68
2023/08/04 00:43:13;;;;;;;2.40;1.20;;;18.00;98.80;;;;;;21003774;28;20300;-68
2023/08/04 00:53:15;;;;;;;3.73;1.30;;;18.00;98.90;;;;;;21002930;28;20233;-68
2023/08/04 01:03:17;;;;;;;3.57;1.23;;;18.00;99.10;;;;;;21001581;28;20713;-69
2023/08/04 01:13:21;;;;;;;2.60;1.40;;;18.00;99.10;;;;;;21033335;28;20290;-69
2023/08/04 01:23:23;;;;;;;4.20;1.30;;;17.90;99.30;;;;;;21000530;28;20251;-69
2023/08/04 01:33:25;;;;;;;2.00;1.20;;;17.90;99.50;;;;;;20997518;28;20233;-69
2023/08/04 01:43:27;;;;;;;5.70;1.37;;;17.80;99.60;;;;;;20998338;28;20761;-68
2023/08/04 01:53:29;;;;;;;5.57;1.57;;;17.70;99.70;;;;;;20998079;28;20763;-69
2023/08/04 02:03:33;;;;;;;2.00;1.50;;;17.70;99.60;;;;;;20996931;28;20291;-70
2023/08/04 02:13:34;;;;;;;5.13;1.60;;;17.80;99.90;;;;;;21028184;28;20638;-69
2023/08/04 02:23:36;;;;;;;2.50;1.37;;;17.80;99.90;;;;;;20996456;28;20306;-69
2023/08/04 02:33:38;;;;;;;2.37;1.40;;;17.70;99.90;;;;;;20995565;28;20262;-69
2023/08/04 02:43:39;;;;;;;2.67;1.60;;;17.70;99.90;;;;;;20994432;28;20212;-69
2023/08/04 02:53:45;;;;;;;4.50;1.50;;;17.70;99.90;;;;;;20994700;28;20236;-69
2023/08/04 03:03:47;;;;;;;3.30;1.37;;;17.70;99.90;;;;;;20994517;28;20639;-69
2023/08/04 03:13:49;;;;;;;5.10;1.50;;;17.70;99.90;;;;;;20993945;28;20694;-69
2023/08/04 03:23:51;;;;;;;7.13;1.43;;;17.80;99.90;;;;;;21018327;28;20223;-68
2023/08/04 03:33:52;;;;;;;4.63;1.90;;;17.80;99.90;;;;;;21055759;28;20235;-69
2023/08/04 03:43:54;;;;;;;3.40;1.60;;;17.80;99.90;;;;;;20993161;28;20206;-69
2023/08/04 03:53:56;;;;;;;3.80;2.20;;;17.90;99.90;;;;;;21005588;28;20240;-69
2023/08/04 04:03:58;;;;;;;4.43;2.23;;;17.90;99.90;;;;;;21037300;28;20302;-69
2023/08/04 04:13:59;;;;;;;5.40;1.80;;;17.90;99.90;;;;;;21006244;28;20244;-69
2023/08/04 04:24:01;;;;;;;2.93;1.60;;;17.90;99.90;;;;;;21005363;28;20250;-69
2023/08/04 04:34:03;;;;;;;4.30;1.87;;;18.00;99.90;;;;;;21003582;28;20715;-69
2023/08/04 04:44:05;;;;;;;7.87;2.30;;;18.00;99.90;;;;;;21012995;28;20718;-69
2023/08/04 04:54:06;;;;;;;3.03;1.70;;;18.00;99.90;;;;;;21001420;28;20696;-69
2023/08/04 05:04:09;;;;;;;3.50;1.80;;;18.00;99.90;;;;;;21001242;28;20248;-69
2023/08/04 05:14:10;;;;;;;3.73;2.03;;;18.00;99.90;;;;;;21000830;28;20201;-69
2023/08/04 05:24:12;;;;;;;6.00;2.30;;;18.00;99.90;;;;;;21022323;28;20697;-70
2023/08/04 05:34:14;;;;;;;4.27;2.67;;;18.00;99.90;;;;;;21070395;28;20221;-68
2023/08/04 05:44:16;;;;;;;4.33;2.20;;;18.10;99.90;;;;;;20998596;28;20213;-69
2023/08/04 05:54:17;;;;;;;2.63;2.03;;;18.20;99.90;;;;;;21028055;28;20231;-68
2023/08/04 06:04:19;;;;;;;4.70;2.33;;;18.20;99.90;;;;;;21078973;28;20198;-66
2023/08/04 06:14:24;;;;;;;5.57;2.50;;;18.30;99.90;;;;;;21067812;28;20616;-67
2023/08/04 06:24:27;;;;;;;3.30;2.73;;;18.40;99.90;;;;;;21031494;28;20209;-67
2023/08/04 06:34:28;;;;;;;8.00;2.50;;;18.50;99.90;;;;;;20995258;28;20302;-67
2023/08/04 06:44:30;;;;;;;3.23;2.20;;;18.60;99.90;;;;;;20994906;28;20741;-68
2023/08/04 06:54:32;;;;;;;4.10;1.90;;;18.70;99.90;;;;;;20994519;28;20229;-67
2023/08/04 07:04:34;;;;;;;2.27;1.80;;;18.90;99.90;;;;;;21003270;28;20322;-70
2023/08/04 07:14:36;;;;;;;2.37;1.50;;;19.10;99.90;;;;;;21039215;28;20293;-70
2023/08/04 07:24:38;;;;;;;1.73;1.60;;;19.60;99.90;;;;;;21061238;28;20220;-70
2023/08/04 07:34:40;;;;;;;1.67;1.57;;;19.70;99.90;;;;;;21028031;28;20291;-69
2023/08/04 07:44:41;;;;;;;2.20;2.00;;;19.80;99.90;;;;;;21013049;28;20649;-70
2023/08/04 07:54:43;;;;;;;5.93;2.53;;;19.90;99.90;;;;;;21091269;28;20252;-71
2023/08/04 08:04:45;;;;;;;2.17;1.53;;;20.00;99.90;;;;;;21088296;28;20317;-66
2023/08/04 08:14:47;;;;;;;2.10;1.60;;;19.90;99.30;;;;;;21088375;28;20212;-68
2023/08/04 08:24:56;;;;;;;3.63;2.20;;;19.90;99.10;;;;;;21089014;28;20310;-68
2023/08/04 08:34:57;;;;;;;4.53;1.80;;;20.20;98.80;;;;;;21087948;28;20610;-69
2023/08/04 08:44:59;;;;;;;3.63;2.10;;;20.30;98.90;;;;;;21085913;28;20766;-68
2023/08/04 08:55:03;;;;;;;4.07;1.80;;;20.50;98.80;;;;;;21086766;28;20239;-67
2023/08/04 09:05:05;;;;;;;4.80;3.47;;;20.40;98.80;;;;;;21078521;28;20242;-66
2023/08/04 09:15:07;;;;;;;4.00;2.00;;;20.10;98.90;;;;;;21043304;28;20543;-67
2023/08/04 09:25:10;;;;;;;4.97;1.80;;;20.10;99.00;;;;;;21046036;28;20230;-67
2023/08/04 09:35:12;;;;;;;5.73;2.17;;;19.80;99.30;;;;;;21034322;28;20210;-72
2023/08/04 09:45:18;;;;;;;3.30;1.90;;;19.50;99.90;;;;;;21045453;28;20265;-66
2023/08/04 09:55:20;;;;;;;2.27;1.70;;;19.90;99.90;;;;;;21030198;28;20210;-66
2023/08/04 10:05:22;;;;;;;1.87;1.67;;;20.10;99.90;;;;;;21041778;28;20329;-73
2023/08/04 10:15:25;;;;;;;2.57;1.70;;;20.30;99.90;;;;;;21030288;28;20662;-66
2023/08/04 10:25:26;;;;;;;4.07;2.97;;;20.30;99.90;;;;;;21028138;28;20656;-66
2023/08/04 10:35:28;;;;;;;2.23;1.90;;;20.10;99.80;;;;;;21039872;28;20651;-67
2023/08/04 10:45:53;;;;;;;2.37;1.90;;;20.10;99.90;;;;;;21028480;28;20560;-67
2023/08/04 10:55:57;;;;;;;1.60;1.50;;;20.20;99.90;;;;;;21015729;28;20285;-67
2023/08/04 11:05:59;;;;;;;2.60;2.20;;;20.40;99.90;;;;;;21036431;28;20247;-67
2023/08/04 11:16:02;;;;;;;3.47;1.70;;;20.60;99.30;;;;;;21041023;28;20690;-67
2023/08/04 11:26:04;;;;;;;1.90;1.60;;;21.10;98.90;;;;;;21008924;28;20318;-67
2023/08/04 11:36:06;;;;;;;1.40;1.30;;;21.70;97.70;;;;;;21007660;28;20242;-68
2023/08/04 11:46:08;;;;;;;1.70;1.60;;;21.70;97.80;;;;;;21008744;28;20233;-67
2023/08/04 11:56:10;;;;;;;3.00;1.40;;;21.70;96.80;;;;;;21029567;28;20658;-69
2023/08/04 12:06:30;;;;;;;2.63;2.10;;;21.90;96.10;;;;;;21053934;28;20234;-70
2023/08/04 12:17:00;;;;;;;2.67;1.80;;;21.60;95.90;;;;;;21041045;28;20203;-70
2023/08/04 12:27:02;;;;;;;2.30;1.80;;;21.50;96.00;;;;;;21004368;28;20277;-69
2023/08/04 12:37:05;;;;;;;1.70;1.60;;;21.40;96.00;;;;;;21080841;28;20237;-70
2023/08/04 12:47:09;;;;;;;1.67;1.57;;;21.80;95.70;;;;;;21053146;28;20325;-76
2023/08/04 12:57:13;;;;;;;1.50;1.40;;;21.90;95.00;;;;;;21000778;28;20231;-73
2023/08/04 13:07:14;;;;;;;3.50;2.90;;;21.90;94.10;;;;;;21045933;28;20277;-74
2023/08/04 13:17:16;;;;;;;2.50;1.93;;;21.80;94.50;;;;;;21083856;28;20210;-77
2023/08/04 13:27:18;;;;;;;2.67;2.10;;;21.90;94.80;;;;;;21082356;28;20283;-75
2023/08/04 13:37:20;;;;;;;10.93;1.70;;;22.30;94.60;;;;;;21083816;28;20207;-75
2023/08/04 13:47:22;;;;;;;3.43;1.50;;;22.60;94.40;;;;;;21068317;28;20670;-72
2023/08/04 13:57:24;;;;;;;4.63;1.90;;;22.20;93.60;;;;;;21035353;28;20651;-68
2023/08/04 14:07:42;;;;;;;2.60;1.70;;;22.00;94.20;;;;;;21045026;28;20303;-77
2023/08/04 14:17:44;;;;;;;2.63;1.60;;;22.30;93.60;;;;;;21080469;28;20645;-79
2023/08/04 14:27:46;;;;;;;5.03;1.83;;;23.20;92.50;;;;;;21079561;28;20333;-76
2023/08/04 14:37:47;;;;;;;2.30;1.70;;;23.40;90.60;;;;;;21078538;28;20210;-73
2023/08/04 14:47:53;;;;;;;2.30;1.80;;;23.90;84.20;;;;;;21077720;28;20230;-72
2023/08/04 14:57:55;;;;;;;1.50;1.20;;;25.20;78.10;;;;;;21076731;28;20202;-79
2023/08/04 15:07:56;;;;;;;1.40;1.10;;;28.80;65.20;;;;;;21076720;28;20698;-79
2023/08/04 15:17:58;;;;;;;2.67;1.90;;;26.40;65.70;;;;;;21054600;28;20674;-78
2023/08/04 15:28:00;;;;;;;2.33;2.13;;;24.90;69.10;;;;;;21033873;28;20239;-77
2023/08/04 15:38:02;;;;;;;2.30;1.80;;;24.30;69.90;;;;;;20993455;28;20203;-76
2023/08/04 15:48:04;;;;;;;3.70;1.97;;;24.00;70.70;;;;;;20997531;28;20322;-80
2023/08/04 15:58:06;;;;;;;5.07;4.07;;;23.60;72.00;;;;;;21007550;28;20294;-77
2023/08/04 16:08:08;;;;;;;3.20;2.10;;;23.30;74.50;;;;;;21006932;28;20699;-77
2023/08/04 16:18:09;;;;;;;2.73;2.10;;;22.80;77.10;;;;;;21006013;28;20217;-80
2023/08/04 16:28:11;;;;;;;5.13;2.70;;;22.30;79.00;;;;;;21005246;28;20237;-79
2023/08/04 16:38:13;;;;;;;2.87;2.03;;;22.40;79.50;;;;;;21022528;28;20576;-79
2023/08/04 16:48:15;;;;;;;25.97;3.73;;;22.50;80.50;;;;;;21007364;28;20773;-74
2023/08/04 16:58:17;;;;;;;11.60;2.10;;;22.80;80.70;;;;;;21037905;28;20242;-82
2023/08/04 17:08:19;;;;;;;7.13;1.70;;;22.80;82.00;;;;;;21010251;28;20239;-76
2023/08/04 17:18:21;;;;;;;2.57;1.80;;;22.50;83.40;;;;;;21038220;28;20631;-74
2023/08/04 17:28:22;;;;;;;2.67;1.80;;;22.30;84.50;;;;;;21036677;28;20318;-74
2023/08/04 17:38:24;;;;;;;2.70;1.70;;;22.00;85.90;;;;;;20999568;28;20298;-73
2023/08/04 17:48:26;;;;;;;3.60;1.77;;;22.00;86.90;;;;;;20998972;28;20838;-76
2023/08/04 17:58:28;;;;;;;3.53;2.10;;;22.10;87.30;;;;;;20998760;28;20561;-80
2023/08/04 18:08:30;;;;;;;2.97;1.70;;;22.00;87.40;;;;;;20997588;28;20235;-72
2023/08/04 18:18:31;;;;;;;3.23;1.93;;;22.10;86.60;;;;;;20996504;28;20290;-71
2023/08/04 18:28:33;;;;;;;3.20;1.70;;;21.90;86.40;;;;;;20994669;28;20234;-73
2023/08/04 18:38:35;;;;;;;2.87;1.40;;;21.50;86.10;;;;;;20993596;28;20285;-72
2023/08/04 18:48:36;;;;;;;2.93;1.37;;;21.50;86.10;;;;;;21017714;28;20234;-70
2023/08/04 18:58:38;;;;;;;1.30;1.20;;;21.20;86.00;;;;;;21010123;28;20578;-69
2023/08/04 19:08:40;;;;;;;2.63;1.30;;;21.00;85.80;;;;;;21026687;28;20756;-73
2023/08/04 19:18:42;;;;;;;2.53;1.40;;;20.90;86.00;;;;;;21028943;28;20232;-72
2023/08/04 19:28:44;;;;;;;2.40;1.40;;;20.70;85.90;;;;;;21049941;28;20333;-76
2023/08/04 19:38:45;;;;;;;2.40;1.83;;;20.60;86.70;;;;;;21042231;28;20210;-79
2023/08/04 19:48:47;;;;;;;2.17;1.93;;;20.40;88.10;;;;;;21044412;28;20313;-75
2023/08/04 19:58:49;;;;;;;1.60;1.50;;;20.30;89.40;;;;;;21049617;28;20237;-78
2023/08/04 20:08:53;;;;;;;2.67;1.70;;;20.20;90.10;;;;;;21040869;28;20239;-77
2023/08/04 20:18:54;;;;;;;2.87;1.83;;;20.10;90.50;;;;;;21041533;28;20224;-74
2023/08/04 20:28:56;;;;;;;2.97;1.73;;;20.00;90.80;;;;;;21047529;28;20276;-76
2023/08/04 20:38:58;;;;;;;1.77;1.53;;;19.90;91.10;;;;;;21033776;28;20572;-78
2023/08/04 20:49:00;;;;;;;2.17;1.80;;;19.80;91.20;;;;;;21036741;28;20325;-74
2023/08/04 20:59:01;;;;;;;3.37;2.67;;;19.80;91.80;;;;;;21045023;28;20207;-76
2023/08/04 21:09:04;;;;;;;4.77;2.83;;;19.70;92.60;;;;;;21035387;28;20285;-72
2023/08/04 21:19:06;;;;;;;4.13;2.30;;;19.60;93.50;;;;;;21030160;28;20225;-88
2023/08/04 21:29:08;;;;;;;2.70;1.73;;;19.60;94.10;;;;;;21053617;28;20597;-88
2023/08/04 21:39:10;;;;;;;2.80;2.03;;;19.60;94.40;;;;;;21049700;28;20289;-87
2023/08/04 21:49:16;;;;;;;8.17;2.40;;;19.60;94.70;;;;;;21044054;28;20692;-72
2023/08/04 21:59:18;;;;;;;3.47;2.20;;;19.50;95.10;;;;;;21019111;28;20603;-76
2023/08/04 22:09:20;;;;;;;5.30;2.20;;;19.50;95.50;;;;;;20997407;28;20289;-74
2023/08/04 22:19:21;;;;;;;4.17;2.50;;;19.40;96.20;;;;;;20996813;28;20305;-75
2023/08/04 22:29:23;;;;;;;7.87;2.90;;;19.40;96.70;;;;;;20996300;28;20793;-73
2023/08/04 22:39:25;;;;;;;4.23;2.80;;;19.40;97.30;;;;;;20996040;28;20217;-74
2023/08/04 22:49:27;;;;;;;3.90;2.80;;;19.30;97.80;;;;;;20995252;28;20320;-75
2023/08/04 22:59:28;;;;;;;5.90;2.90;;;19.30;98.50;;;;;;21014316;28;20212;-78
2023/08/04 23:09:30;;;;;;;4.70;2.90;;;19.30;98.60;;;;;;21023160;28;20281;-76
2023/08/04 23:19:32;;;;;;;4.20;2.70;;;19.20;98.90;;;;;;21010826;28;20306;-76
2023/08/04 23:29:33;;;;;;;3.00;2.70;;;19.30;99.10;;;;;;21009853;28;20242;-84
2023/08/04 23:39:35;;;;;;;6.87;2.73;;;19.30;99.10;;;;;;21009435;28;20249;-83
2023/08/04 23:49:37;;;;;;;5.77;2.80;;;19.30;99.10;;;;;;21008680;28;20241;-82
2023/08/04 23:59:39;;;;;;;5.83;2.70;;;19.30;99.10;;;;;;21007753;28;20737;-88
